sensor_id;sensor_type;location;lat;lon;timestamp;P1;durP1;ratioP1;P2;durP2;ratioP2
2784;SDS011;57944;48.722;9.316;2023-07-22T00:02:00;11.30;;;8.17;;
2784;SDS011;57944;48.722;9.316;2023-07-22T00:04:34;14.87;;;9.30;;
2784;SDS011;57944;48.722;9.316;2023-07-22T00:07:04;11.70;;;8.57;;
2784;SDS011;57944;48.722;9.316;2023-07-22T00:09:35;15.47;;;9.57;;
2784;SDS011;57944;48.722;9.316;2023-07-22T00:12:08;14.47;;;10.73;;
2784;SDS011;57944;48.722;9.316;2023-07-22T00:14:40;13.60;;;10.00;;
2784;SDS011;57944;48.722;9.316;2023-07-22T00:17:11;11.77;;;9.00;;
2784;SDS011;57944;48.722;9.316;2023-07-22T00:19:44;19.67;;;10.70;;
2784;SDS011;57944;48.722;9.316;2023-07-22T00:22:15;14.30;;;10.67;;
2784;SDS011;57944;48.722;9.316;2023-07-22T00:24:46;14.93;;;10.97;;
2784;SDS011;57944;48.722;9.316;2023-07-22T00:27:17;13.97;;;9.80;;
2784;SDS011;57944;48.722;9.316;2023-07-22T00:29:48;16.83;;;11.07;;
2784;SDS011;57944;48.722;9.316;2023-07-22T00:32:18;13.33;;;10.03;;
2784;SDS011;57944;48.722;9.316;2023-07-22T00:34:52;20.77;;;9.70;;
2784;SDS011;57944;48.722;9.316;2023-07-22T00:37:23;13.73;;;9.80;;
2784;SDS011;57944;48.722;9.316;2023-07-22T00:39:54;14.30;;;9.73;;
2784;SDS011;57944;48.722;9.316;2023-07-22T00:42:25;14.03;;;10.10;;
2784;SDS011;57944;48.722;9.316;2023-07-22T00:44:55;13.57;;;9.40;;
2784;SDS011;57944;48.722;9.316;2023-07-22T00:47:26;15.83;;;9.57;;
2784;SDS011;57944;48.722;9.316;2023-07-22T00:49:59;20.40;;;10.20;;
2784;SDS011;57944;48.722;9.316;2023-07-22T00:52:32;19.37;;;10.70;;
2784;SDS011;57944;48.722;9.316;2023-07-22T00:55:04;13.50;;;10.67;;
2784;SDS011;57944;48.722;9.316;2023-07-22T00:57:36;11.53;;;8.63;;
2784;SDS011;57944;48.722;9.316;2023-07-22T01:00:07;12.07;;;8.77;;
2784;SDS011;57944;48.722;9.316;2023-07-22T01:02:39;13.07;;;9.37;;
2784;SDS011;57944;48.722;9.316;2023-07-22T01:05:15;13.10;;;10.27;;
2784;SDS011;57944;48.722;9.316;2023-07-22T01:07:46;14.10;;;9.57;;
2784;SDS011;57944;48.722;9.316;2023-07-22T01:10:16;14.30;;;10.50;;
2784;SDS011;57944;48.722;9.316;2023-07-22T01:12:47;12.93;;;9.33;;
2784;SDS011;57944;48.722;9.316;2023-07-22T01:15:18;15.93;;;9.50;;
2784;SDS011;57944;48.722;9.316;2023-07-22T01:17:49;17.23;;;8.33;;
2784;SDS011;57944;48.722;9.316;2023-07-22T01:20:24;13.53;;;9.40;;
2784;SDS011;57944;48.722;9.316;2023-07-22T01:22:57;12.40;;;9.30;;
2784;SDS011;57944;48.722;9.316;2023-07-22T01:25:28;10.33;;;7.27;;
2784;SDS011;57944;48.722;9.316;2023-07-22T01:27:59;11.40;;;9.93;;
2784;SDS011;57944;48.722;9.316;2023-07-22T01:30:30;12.00;;;9.37;;
2784;SDS011;57944;48.722;9.316;2023-07-22T01:33:00;14.97;;;10.70;;
2784;SDS011;57944;48.722;9.316;2023-07-22T01:35:31;15.70;;;9.53;;
2784;SDS011;57944;48.722;9.316;2023-07-22T01:38:05;12.73;;;8.83;;
2784;SDS011;57944;48.722;9.316;2023-07-22T01:40:36;14.10;;;9.47;;
2784;SDS011;57944;48.722;9.316;2023-07-22T01:43:07;14.10;;;8.70;;
2784;SDS011;57944;48.722;9.316;2023-07-22T01:45:37;13.67;;;9.50;;
2784;SDS011;57944;48.722;9.316;2023-07-22T01:48:09;11.53;;;9.53;;
2784;SDS011;57944;48.722;9.316;2023-07-22T01:50:39;20.10;;;10.40;;
2784;SDS011;57944;48.722;9.316;2023-07-22T01:53:13;14.87;;;10.20;;
2784;SDS011;57944;48.722;9.316;2023-07-22T01:55:43;12.60;;;9.30;;
2784;SDS011;57944;48.722;9.316;2023-07-22T01:58:14;15.60;;;10.70;;
2784;SDS011;57944;48.722;9.316;2023-07-22T02:00:48;15.43;;;10.10;;
2784;SDS011;57944;48.722;9.316;2023-07-22T02:03:19;15.07;;;10.50;;
2784;SDS011;57944;48.722;9.316;2023-07-22T02:05:50;13.80;;;9.50;;
2784;SDS011;57944;48.722;9.316;2023-07-22T02:08:23;13.33;;;9.33;;
2784;SDS011;57944;48.722;9.316;2023-07-22T02:10:54;13.90;;;9.77;;
2784;SDS011;57944;48.722;9.316;2023-07-22T02:13:27;21.60;;;11.03;;
2784;SDS011;57944;48.722;9.316;2023-07-22T02:15:58;13.67;;;10.77;;
2784;SDS011;57944;48.722;9.316;2023-07-22T02:18:29;21.40;;;11.67;;
2784;SDS011;57944;48.722;9.316;2023-07-22T02:21:00;12.07;;;9.20;;
2784;SDS011;57944;48.722;9.316;2023-07-22T02:23:33;15.97;;;9.70;;
2784;SDS011;57944;48.722;9.316;2023-07-22T02:26:04;19.00;;;9.60;;
2784;SDS011;57944;48.722;9.316;2023-07-22T02:28:35;14.73;;;9.53;;
2784;SDS011;57944;48.722;9.316;2023-07-22T02:31:05;16.03;;;10.90;;
2784;SDS011;57944;48.722;9.316;2023-07-22T02:33:37;15.40;;;9.90;;
2784;SDS011;57944;48.722;9.316;2023-07-22T02:36:08;12.53;;;8.80;;
2784;SDS011;57944;48.722;9.316;2023-07-22T02:38:41;11.40;;;8.40;;
2784;SDS011;57944;48.722;9.316;2023-07-22T02:41:12;18.33;;;9.60;;
2784;SDS011;57944;48.722;9.316;2023-07-22T02:43:42;14.00;;;9.70;;
2784;SDS011;57944;48.722;9.316;2023-07-22T02:46:13;12.30;;;9.70;;
2784;SDS011;57944;48.722;9.316;2023-07-22T02:48:44;13.00;;;9.30;;
2784;SDS011;57944;48.722;9.316;2023-07-22T02:51:15;19.10;;;9.67;;
2784;SDS011;57944;48.722;9.316;2023-07-22T02:53:48;13.93;;;9.53;;
2784;SDS011;57944;48.722;9.316;2023-07-22T02:56:19;28.93;;;11.53;;
2784;SDS011;57944;48.722;9.316;2023-07-22T02:58:51;15.50;;;10.40;;
2784;SDS011;57944;48.722;9.316;2023-07-22T03:01:21;13.40;;;9.07;;
2784;SDS011;57944;48.722;9.316;2023-07-22T03:03:53;24.80;;;8.70;;
2784;SDS011;57944;48.722;9.316;2023-07-22T03:06:23;13.43;;;8.80;;
2784;SDS011;57944;48.722;9.316;2023-07-22T03:08:58;17.43;;;8.27;;
2784;SDS011;57944;48.722;9.316;2023-07-22T03:11:31;13.27;;;9.07;;
2784;SDS011;57944;48.722;9.316;2023-07-22T03:14:01;13.10;;;9.03;;
2784;SDS011;57944;48.722;9.316;2023-07-22T03:16:32;11.93;;;8.17;;
2784;SDS011;57944;48.722;9.316;2023-07-22T03:19:03;15.10;;;9.00;;
2784;SDS011;57944;48.722;9.316;2023-07-22T03:21:33;13.60;;;9.03;;
2784;SDS011;57944;48.722;9.316;2023-07-22T03:24:06;18.80;;;10.20;;
2784;SDS011;57944;48.722;9.316;2023-07-22T03:26:37;15.63;;;10.17;;
2784;SDS011;57944;48.722;9.316;2023-07-22T03:29:08;12.33;;;8.63;;
2784;SDS011;57944;48.722;9.316;2023-07-22T03:31:38;14.97;;;8.90;;
2784;SDS011;57944;48.722;9.316;2023-07-22T03:34:09;12.37;;;8.80;;
2784;SDS011;57944;48.722;9.316;2023-07-22T03:36:39;11.87;;;8.80;;
2784;SDS011;57944;48.722;9.316;2023-07-22T03:39:13;11.50;;;7.87;;
2784;SDS011;57944;48.722;9.316;2023-07-22T03:41:43;14.00;;;8.60;;
2784;SDS011;57944;48.722;9.316;2023-07-22T03:44:14;10.67;;;8.20;;
2784;SDS011;57944;48.722;9.316;2023-07-22T03:46:44;15.20;;;9.37;;
2784;SDS011;57944;48.722;9.316;2023-07-22T03:49:15;11.93;;;8.90;;
2784;SDS011;57944;48.722;9.316;2023-07-22T03:51:45;12.53;;;9.03;;
2784;SDS011;57944;48.722;9.316;2023-07-22T03:54:19;16.43;;;10.97;;
2784;SDS011;57944;48.722;9.316;2023-07-22T03:56:49;14.83;;;9.90;;
2784;SDS011;57944;48.722;9.316;2023-07-22T03:59:20;12.10;;;8.90;;
2784;SDS011;57944;48.722;9.316;2023-07-22T04:01:50;11.80;;;8.93;;
2784;SDS011;57944;48.722;9.316;2023-07-22T04:04:21;11.60;;;9.10;;
2784;SDS011;57944;48.722;9.316;2023-07-22T04:06:51;13.20;;;9.23;;
2784;SDS011;57944;48.722;9.316;2023-07-22T04:09:25;11.60;;;9.13;;
2784;SDS011;57944;48.722;9.316;2023-07-22T04:11:56;16.43;;;10.63;;
2784;SDS011;57944;48.722;9.316;2023-07-22T04:14:27;13.30;;;9.20;;
2784;SDS011;57944;48.722;9.316;2023-07-22T04:16:58;15.80;;;10.50;;
2784;SDS011;57944;48.722;9.316;2023-07-22T04:19:30;12.77;;;9.47;;
2784;SDS011;57944;48.722;9.316;2023-07-22T04:22:01;12.67;;;8.23;;
2784;SDS011;57944;48.722;9.316;2023-07-22T04:24:35;12.37;;;8.70;;
2784;SDS011;57944;48.722;9.316;2023-07-22T04:27:06;11.10;;;8.70;;
2784;SDS011;57944;48.722;9.316;2023-07-22T04:29:36;14.07;;;9.60;;
2784;SDS011;57944;48.722;9.316;2023-07-22T04:32:08;11.60;;;9.10;;
2784;SDS011;57944;48.722;9.316;2023-07-22T04:34:39;16.27;;;10.90;;
2784;SDS011;57944;48.722;9.316;2023-07-22T04:37:10;13.27;;;9.57;;
2784;SDS011;57944;48.722;9.316;2023-07-22T04:39:46;11.23;;;8.73;;
2784;SDS011;57944;48.722;9.316;2023-07-22T04:42:17;14.07;;;9.70;;
2784;SDS011;57944;48.722;9.316;2023-07-22T04:44:48;15.63;;;9.53;;
2784;SDS011;57944;48.722;9.316;2023-07-22T04:47:18;11.90;;;9.33;;
2784;SDS011;57944;48.722;9.316;2023-07-22T04:49:49;14.73;;;9.70;;
2784;SDS011;57944;48.722;9.316;2023-07-22T04:52:19;11.17;;;8.90;;
2784;SDS011;57944;48.722;9.316;2023-07-22T04:54:52;10.63;;;9.07;;
2784;SDS011;57944;48.722;9.316;2023-07-22T04:57:23;10.57;;;8.67;;
2784;SDS011;57944;48.722;9.316;2023-07-22T04:59:54;13.70;;;8.30;;
2784;SDS011;57944;48.722;9.316;2023-07-22T05:02:24;13.80;;;7.77;;
2784;SDS011;57944;48.722;9.316;2023-07-22T05:04:55;10.57;;;8.00;;
2784;SDS011;57944;48.722;9.316;2023-07-22T05:07:26;9.03;;;6.20;;
2784;SDS011;57944;48.722;9.316;2023-07-22T05:09:59;10.23;;;7.73;;
2784;SDS011;57944;48.722;9.316;2023-07-22T05:12:30;8.83;;;7.20;;
2784;SDS011;57944;48.722;9.316;2023-07-22T05:15:00;12.00;;;7.30;;
2784;SDS011;57944;48.722;9.316;2023-07-22T05:17:31;8.90;;;5.97;;
2784;SDS011;57944;48.722;9.316;2023-07-22T05:20:02;12.17;;;5.53;;
2784;SDS011;57944;48.722;9.316;2023-07-22T05:22:36;8.33;;;5.83;;
2784;SDS011;57944;48.722;9.316;2023-07-22T05:25:09;9.03;;;5.43;;
2784;SDS011;57944;48.722;9.316;2023-07-22T05:27:40;6.03;;;4.90;;
2784;SDS011;57944;48.722;9.316;2023-07-22T05:30:11;7.60;;;5.10;;
2784;SDS011;57944;48.722;9.316;2023-07-22T05:33:00;6.43;;;5.03;;
2784;SDS011;57944;48.722;9.316;2023-07-22T05:35:34;5.90;;;4.40;;
2784;SDS011;57944;48.722;9.316;2023-07-22T05:38:04;7.17;;;4.73;;
2784;SDS011;57944;48.722;9.316;2023-07-22T05:40:37;6.90;;;5.50;;
2784;SDS011;57944;48.722;9.316;2023-07-22T05:43:08;7.70;;;5.90;;
2784;SDS011;57944;48.722;9.316;2023-07-22T05:45:38;8.90;;;5.03;;
2784;SDS011;57944;48.722;9.316;2023-07-22T05:48:09;6.23;;;4.50;;
2784;SDS011;57944;48.722;9.316;2023-07-22T05:50:40;7.10;;;4.90;;
2784;SDS011;57944;48.722;9.316;2023-07-22T05:53:10;6.20;;;4.63;;
2784;SDS011;57944;48.722;9.316;2023-07-22T05:55:44;6.77;;;4.73;;
2784;SDS011;57944;48.722;9.316;2023-07-22T05:58:17;5.33;;;4.27;;
2784;SDS011;57944;48.722;9.316;2023-07-22T06:00:48;7.23;;;5.37;;
2784;SDS011;57944;48.722;9.316;2023-07-22T06:03:18;6.70;;;4.70;;
2784;SDS011;57944;48.722;9.316;2023-07-22T06:05:50;7.67;;;4.73;;
2784;SDS011;57944;48.722;9.316;2023-07-22T06:08:20;7.43;;;5.27;;
2784;SDS011;57944;48.722;9.316;2023-07-22T06:10:55;5.67;;;4.00;;
2784;SDS011;57944;48.722;9.316;2023-07-22T06:13:26;11.87;;;5.40;;
2784;SDS011;57944;48.722;9.316;2023-07-22T06:15:57;8.13;;;4.50;;
2784;SDS011;57944;48.722;9.316;2023-07-22T06:18:27;9.87;;;5.13;;
2784;SDS011;57944;48.722;9.316;2023-07-22T06:20:58;7.20;;;5.03;;
2784;SDS011;57944;48.722;9.316;2023-07-22T06:23:29;7.33;;;4.57;;
2784;SDS011;57944;48.722;9.316;2023-07-22T06:26:02;8.73;;;4.50;;
2784;SDS011;57944;48.722;9.316;2023-07-22T06:28:33;8.17;;;5.20;;
2784;SDS011;57944;48.722;9.316;2023-07-22T06:31:03;6.30;;;3.97;;
2784;SDS011;57944;48.722;9.316;2023-07-22T06:33:34;9.70;;;4.57;;
2784;SDS011;57944;48.722;9.316;2023-07-22T06:36:05;6.73;;;4.87;;
2784;SDS011;57944;48.722;9.316;2023-07-22T06:38:35;8.20;;;4.63;;
2784;SDS011;57944;48.722;9.316;2023-07-22T06:41:08;7.20;;;4.10;;
2784;SDS011;57944;48.722;9.316;2023-07-22T06:43:39;7.17;;;4.00;;
2784;SDS011;57944;48.722;9.316;2023-07-22T06:46:10;5.50;;;4.30;;
2784;SDS011;57944;48.722;9.316;2023-07-22T06:48:40;10.93;;;4.27;;
2784;SDS011;57944;48.722;9.316;2023-07-22T06:51:11;9.03;;;4.13;;
2784;SDS011;57944;48.722;9.316;2023-07-22T06:53:41;6.80;;;4.53;;
2784;SDS011;57944;48.722;9.316;2023-07-22T06:56:15;7.13;;;4.43;;
2784;SDS011;57944;48.722;9.316;2023-07-22T06:58:45;8.13;;;4.87;;
2784;SDS011;57944;48.722;9.316;2023-07-22T07:01:17;7.57;;;4.20;;
2784;SDS011;57944;48.722;9.316;2023-07-22T07:03:48;7.87;;;4.20;;
2784;SDS011;57944;48.722;9.316;2023-07-22T07:06:19;9.20;;;4.20;;
2784;SDS011;57944;48.722;9.316;2023-07-22T07:08:49;10.57;;;4.27;;
2784;SDS011;57944;48.722;9.316;2023-07-22T07:11:23;7.00;;;4.37;;
2784;SDS011;57944;48.722;9.316;2023-07-22T07:13:53;9.63;;;4.30;;
2784;SDS011;57944;48.722;9.316;2023-07-22T07:16:24;7.10;;;4.30;;
2784;SDS011;57944;48.722;9.316;2023-07-22T07:18:58;8.03;;;4.40;;
2784;SDS011;57944;48.722;9.316;2023-07-22T07:21:31;5.30;;;4.00;;
2784;SDS011;57944;48.722;9.316;2023-07-22T07:24:02;11.50;;;4.23;;
2784;SDS011;57944;48.722;9.316;2023-07-22T07:26:35;6.63;;;4.27;;
2784;SDS011;57944;48.722;9.316;2023-07-22T07:29:06;4.77;;;3.10;;
2784;SDS011;57944;48.722;9.316;2023-07-22T07:31:37;6.17;;;3.97;;
2784;SDS011;57944;48.722;9.316;2023-07-22T07:34:07;5.30;;;3.90;;
2784;SDS011;57944;48.722;9.316;2023-07-22T07:36:38;6.80;;;4.03;;
2784;SDS011;57944;48.722;9.316;2023-07-22T07:39:08;12.03;;;4.57;;
2784;SDS011;57944;48.722;9.316;2023-07-22T07:41:42;7.50;;;5.33;;
2784;SDS011;57944;48.722;9.316;2023-07-22T07:44:12;11.97;;;5.63;;
2784;SDS011;57944;48.722;9.316;2023-07-22T07:46:43;6.37;;;3.80;;
2784;SDS011;57944;48.722;9.316;2023-07-22T07:49:13;8.10;;;3.90;;
2784;SDS011;57944;48.722;9.316;2023-07-22T07:51:44;5.50;;;3.70;;
2784;SDS011;57944;48.722;9.316;2023-07-22T07:54:14;7.00;;;3.80;;
2784;SDS011;57944;48.722;9.316;2023-07-22T07:56:48;8.00;;;4.40;;
2784;SDS011;57944;48.722;9.316;2023-07-22T07:59:18;6.33;;;3.90;;
2784;SDS011;57944;48.722;9.316;2023-07-22T08:01:49;5.80;;;3.23;;
2784;SDS011;57944;48.722;9.316;2023-07-22T08:04:19;5.13;;;3.80;;
2784;SDS011;57944;48.722;9.316;2023-07-22T08:06:50;5.90;;;3.60;;
2784;SDS011;57944;48.722;9.316;2023-07-22T08:09:20;26.67;;;4.63;;
2784;SDS011;57944;48.722;9.316;2023-07-22T08:11:54;5.23;;;3.77;;
2784;SDS011;57944;48.722;9.316;2023-07-22T08:14:24;6.70;;;3.90;;
2784;SDS011;57944;48.722;9.316;2023-07-22T08:16:55;8.30;;;3.50;;
2784;SDS011;57944;48.722;9.316;2023-07-22T08:19:26;6.63;;;3.83;;
2784;SDS011;57944;48.722;9.316;2023-07-22T08:21:56;5.03;;;3.87;;
2784;SDS011;57944;48.722;9.316;2023-07-22T08:24:27;6.30;;;3.57;;
2784;SDS011;57944;48.722;9.316;2023-07-22T08:27:00;4.43;;;2.70;;
2784;SDS011;57944;48.722;9.316;2023-07-22T08:29:31;4.80;;;2.90;;
2784;SDS011;57944;48.722;9.316;2023-07-22T08:32:02;5.90;;;2.80;;
2784;SDS011;57944;48.722;9.316;2023-07-22T08:34:33;9.33;;;3.50;;
2784;SDS011;57944;48.722;9.316;2023-07-22T08:37:04;5.30;;;2.90;;
2784;SDS011;57944;48.722;9.316;2023-07-22T08:39:34;3.73;;;2.30;;
2784;SDS011;57944;48.722;9.316;2023-07-22T08:42:08;4.27;;;2.63;;
2784;SDS011;57944;48.722;9.316;2023-07-22T08:44:41;4.43;;;3.00;;
2784;SDS011;57944;48.722;9.316;2023-07-22T08:47:16;4.27;;;2.83;;
2784;SDS011;57944;48.722;9.316;2023-07-22T08:49:51;3.93;;;2.27;;
2784;SDS011;57944;48.722;9.316;2023-07-22T08:52:27;4.50;;;2.60;;
2784;SDS011;57944;48.722;9.316;2023-07-22T08:54:58;6.43;;;2.43;;
2784;SDS011;57944;48.722;9.316;2023-07-22T08:57:32;4.17;;;2.67;;
2784;SDS011;57944;48.722;9.316;2023-07-22T09:00:05;4.27;;;2.70;;
2784;SDS011;57944;48.722;9.316;2023-07-22T09:02:38;4.63;;;2.50;;
2784;SDS011;57944;48.722;9.316;2023-07-22T09:05:11;5.73;;;3.07;;
2784;SDS011;57944;48.722;9.316;2023-07-22T09:07:42;5.17;;;2.77;;
2784;SDS011;57944;48.722;9.316;2023-07-22T09:10:13;5.50;;;2.67;;
2784;SDS011;57944;48.722;9.316;2023-07-22T09:12:48;4.77;;;3.40;;
2784;SDS011;57944;48.722;9.316;2023-07-22T09:15:20;4.03;;;2.50;;
2784;SDS011;57944;48.722;9.316;2023-07-22T09:17:51;3.70;;;2.60;;
2784;SDS011;57944;48.722;9.316;2023-07-22T09:20:21;3.47;;;2.20;;
2784;SDS011;57944;48.722;9.316;2023-07-22T09:22:54;6.07;;;2.80;;
2784;SDS011;57944;48.722;9.316;2023-07-22T09:25:39;4.10;;;2.90;;
2784;SDS011;57944;48.722;9.316;2023-07-22T09:28:13;3.63;;;2.50;;
2784;SDS011;57944;48.722;9.316;2023-07-22T09:30:43;4.10;;;3.00;;
2784;SDS011;57944;48.722;9.316;2023-07-22T09:33:19;3.70;;;2.47;;
2784;SDS011;57944;48.722;9.316;2023-07-22T09:35:53;4.00;;;2.43;;
2784;SDS011;57944;48.722;9.316;2023-07-22T09:38:25;3.90;;;2.53;;
2784;SDS011;57944;48.722;9.316;2023-07-22T09:40:56;4.67;;;2.70;;
2784;SDS011;57944;48.722;9.316;2023-07-22T09:43:29;3.53;;;2.43;;
2784;SDS011;57944;48.722;9.316;2023-07-22T09:46:05;4.10;;;2.53;;
2784;SDS011;57944;48.722;9.316;2023-07-22T09:48:40;5.03;;;3.27;;
2784;SDS011;57944;48.722;9.316;2023-07-22T09:51:12;5.00;;;2.77;;
2784;SDS011;57944;48.722;9.316;2023-07-22T09:53:44;4.30;;;2.80;;
2784;SDS011;57944;48.722;9.316;2023-07-22T09:56:16;4.60;;;3.00;;
2784;SDS011;57944;48.722;9.316;2023-07-22T09:58:48;4.23;;;2.50;;
2784;SDS011;57944;48.722;9.316;2023-07-22T10:01:22;5.23;;;2.77;;
2784;SDS011;57944;48.722;9.316;2023-07-22T10:03:54;3.90;;;2.53;;
2784;SDS011;57944;48.722;9.316;2023-07-22T10:06:26;5.70;;;2.90;;
2784;SDS011;57944;48.722;9.316;2023-07-22T10:08:58;4.00;;;2.70;;
2784;SDS011;57944;48.722;9.316;2023-07-22T10:11:34;4.03;;;2.87;;
2784;SDS011;57944;48.722;9.316;2023-07-22T10:14:07;5.00;;;3.33;;
2784;SDS011;57944;48.722;9.316;2023-07-22T10:16:39;6.07;;;2.40;;
2784;SDS011;57944;48.722;9.316;2023-07-22T10:19:10;3.80;;;2.57;;
2784;SDS011;57944;48.722;9.316;2023-07-22T10:21:42;5.20;;;2.60;;
2784;SDS011;57944;48.722;9.316;2023-07-22T10:24:12;4.20;;;2.63;;
2784;SDS011;57944;48.722;9.316;2023-07-22T10:26:43;3.87;;;2.43;;
2784;SDS011;57944;48.722;9.316;2023-07-22T10:29:20;6.37;;;2.33;;
2784;SDS011;57944;48.722;9.316;2023-07-22T10:31:52;3.57;;;2.30;;
2784;SDS011;57944;48.722;9.316;2023-07-22T10:34:23;4.10;;;2.43;;
2784;SDS011;57944;48.722;9.316;2023-07-22T10:36:55;10.60;;;2.60;;
2784;SDS011;57944;48.722;9.316;2023-07-22T10:39:26;3.60;;;2.40;;
2784;SDS011;57944;48.722;9.316;2023-07-22T10:41:59;3.50;;;2.40;;
2784;SDS011;57944;48.722;9.316;2023-07-22T10:44:34;4.77;;;2.43;;
2784;SDS011;57944;48.722;9.316;2023-07-22T10:47:07;5.67;;;2.63;;
2784;SDS011;57944;48.722;9.316;2023-07-22T10:49:44;5.90;;;2.70;;
2784;SDS011;57944;48.722;9.316;2023-07-22T10:55:15;7.07;;;2.47;;
2784;SDS011;57944;48.722;9.316;2023-07-22T10:57:49;7.80;;;2.57;;
2784;SDS011;57944;48.722;9.316;2023-07-22T11:00:25;3.73;;;2.23;;
2784;SDS011;57944;48.722;9.316;2023-07-22T11:03:09;4.53;;;2.53;;
2784;SDS011;57944;48.722;9.316;2023-07-22T11:05:47;4.00;;;2.53;;
2784;SDS011;57944;48.722;9.316;2023-07-22T11:08:35;4.63;;;2.57;;
2784;SDS011;57944;48.722;9.316;2023-07-22T11:11:07;4.50;;;3.00;;
2784;SDS011;57944;48.722;9.316;2023-07-22T11:13:38;4.43;;;2.77;;
2784;SDS011;57944;48.722;9.316;2023-07-22T11:16:12;4.07;;;2.50;;
2784;SDS011;57944;48.722;9.316;2023-07-22T11:18:45;4.60;;;2.53;;
2784;SDS011;57944;48.722;9.316;2023-07-22T11:21:15;5.00;;;2.83;;
2784;SDS011;57944;48.722;9.316;2023-07-22T11:23:45;4.30;;;2.40;;
2784;SDS011;57944;48.722;9.316;2023-07-22T11:26:16;3.37;;;2.00;;
2784;SDS011;57944;48.722;9.316;2023-07-22T11:28:47;4.07;;;2.80;;
2784;SDS011;57944;48.722;9.316;2023-07-22T11:31:22;4.87;;;3.17;;
2784;SDS011;57944;48.722;9.316;2023-07-22T11:33:59;5.90;;;2.87;;
2784;SDS011;57944;48.722;9.316;2023-07-22T11:36:29;4.23;;;2.97;;
2784;SDS011;57944;48.722;9.316;2023-07-22T11:39:02;6.50;;;3.17;;
2784;SDS011;57944;48.722;9.316;2023-07-22T11:41:35;6.40;;;3.50;;
2784;SDS011;57944;48.722;9.316;2023-07-22T11:44:08;4.83;;;2.70;;
2784;SDS011;57944;48.722;9.316;2023-07-22T11:46:51;5.37;;;3.70;;
2784;SDS011;57944;48.722;9.316;2023-07-22T11:49:25;4.70;;;2.77;;
2784;SDS011;57944;48.722;9.316;2023-07-22T11:51:58;5.20;;;2.83;;
2784;SDS011;57944;48.722;9.316;2023-07-22T11:54:30;3.60;;;2.10;;
2784;SDS011;57944;48.722;9.316;2023-07-22T11:57:11;4.70;;;3.00;;
2784;SDS011;57944;48.722;9.316;2023-07-22T11:59:44;9.33;;;3.20;;
2784;SDS011;57944;48.722;9.316;2023-07-22T12:02:19;4.30;;;3.03;;
2784;SDS011;57944;48.722;9.316;2023-07-22T12:04:52;5.97;;;2.97;;
2784;SDS011;57944;48.722;9.316;2023-07-22T12:07:24;5.03;;;2.83;;
2784;SDS011;57944;48.722;9.316;2023-07-22T12:09:57;4.40;;;2.60;;
2784;SDS011;57944;48.722;9.316;2023-07-22T12:12:33;4.60;;;2.80;;
2784;SDS011;57944;48.722;9.316;2023-07-22T12:15:08;4.33;;;2.67;;
2784;SDS011;57944;48.722;9.316;2023-07-22T12:17:46;6.73;;;2.80;;
2784;SDS011;57944;48.722;9.316;2023-07-22T12:20:23;3.97;;;2.90;;
2784;SDS011;57944;48.722;9.316;2023-07-22T12:22:55;4.70;;;2.90;;
2784;SDS011;57944;48.722;9.316;2023-07-22T12:25:26;6.77;;;2.53;;
2784;SDS011;57944;48.722;9.316;2023-07-22T12:27:57;4.70;;;2.90;;
2784;SDS011;57944;48.722;9.316;2023-07-22T12:30:27;5.07;;;3.00;;
2784;SDS011;57944;48.722;9.316;2023-07-22T12:33:00;3.53;;;2.63;;
2784;SDS011;57944;48.722;9.316;2023-07-22T12:35:30;3.80;;;2.73;;
2784;SDS011;57944;48.722;9.316;2023-07-22T12:38:01;4.83;;;3.87;;
2784;SDS011;57944;48.722;9.316;2023-07-22T12:40:31;5.57;;;2.57;;
2784;SDS011;57944;48.722;9.316;2023-07-22T12:43:01;4.93;;;3.47;;
2784;SDS011;57944;48.722;9.316;2023-07-22T12:45:32;5.03;;;2.47;;
2784;SDS011;57944;48.722;9.316;2023-07-22T12:48:05;3.70;;;2.53;;
2784;SDS011;57944;48.722;9.316;2023-07-22T12:50:35;4.60;;;3.40;;
2784;SDS011;57944;48.722;9.316;2023-07-22T12:53:06;7.03;;;3.30;;
2784;SDS011;57944;48.722;9.316;2023-07-22T12:55:37;4.00;;;2.80;;
2784;SDS011;57944;48.722;9.316;2023-07-22T12:58:07;4.83;;;3.03;;
2784;SDS011;57944;48.722;9.316;2023-07-22T13:00:38;6.47;;;3.70;;
2784;SDS011;57944;48.722;9.316;2023-07-22T13:03:11;4.80;;;2.80;;
2784;SDS011;57944;48.722;9.316;2023-07-22T13:05:41;3.90;;;3.00;;
2784;SDS011;57944;48.722;9.316;2023-07-22T13:08:15;7.70;;;2.80;;
2784;SDS011;57944;48.722;9.316;2023-07-22T13:10:45;9.57;;;3.97;;
2784;SDS011;57944;48.722;9.316;2023-07-22T13:13:15;5.07;;;3.10;;
2784;SDS011;57944;48.722;9.316;2023-07-22T13:15:45;4.23;;;3.00;;
2784;SDS011;57944;48.722;9.316;2023-07-22T13:18:18;3.90;;;2.73;;
2784;SDS011;57944;48.722;9.316;2023-07-22T13:20:49;6.77;;;4.07;;
2784;SDS011;57944;48.722;9.316;2023-07-22T13:23:19;5.20;;;3.47;;
2784;SDS011;57944;48.722;9.316;2023-07-22T13:25:49;5.00;;;3.23;;
2784;SDS011;57944;48.722;9.316;2023-07-22T13:28:20;5.13;;;3.17;;
2784;SDS011;57944;48.722;9.316;2023-07-22T13:30:50;5.70;;;3.27;;
2784;SDS011;57944;48.722;9.316;2023-07-22T13:33:23;4.97;;;3.20;;
2784;SDS011;57944;48.722;9.316;2023-07-22T13:35:53;4.60;;;3.10;;
2784;SDS011;57944;48.722;9.316;2023-07-22T13:38:23;6.07;;;4.30;;
2784;SDS011;57944;48.722;9.316;2023-07-22T13:40:55;5.10;;;3.67;;
2784;SDS011;57944;48.722;9.316;2023-07-22T13:43:25;6.30;;;3.23;;
2784;SDS011;57944;48.722;9.316;2023-07-22T13:45:56;6.17;;;3.60;;
2784;SDS011;57944;48.722;9.316;2023-07-22T13:48:29;5.80;;;3.87;;
2784;SDS011;57944;48.722;9.316;2023-07-22T13:50:59;7.30;;;4.47;;
2784;SDS011;57944;48.722;9.316;2023-07-22T13:53:29;5.50;;;3.30;;
2784;SDS011;57944;48.722;9.316;2023-07-22T13:56:00;5.07;;;3.30;;
2784;SDS011;57944;48.722;9.316;2023-07-22T13:58:30;4.87;;;3.30;;
2784;SDS011;57944;48.722;9.316;2023-07-22T14:01:00;6.50;;;3.70;;
2784;SDS011;57944;48.722;9.316;2023-07-22T14:03:33;5.37;;;3.33;;
2784;SDS011;57944;48.722;9.316;2023-07-22T14:06:03;6.53;;;3.93;;
2784;SDS011;57944;48.722;9.316;2023-07-22T14:08:34;5.60;;;4.00;;
2784;SDS011;57944;48.722;9.316;2023-07-22T14:11:05;5.50;;;3.70;;
2784;SDS011;57944;48.722;9.316;2023-07-22T14:13:35;5.30;;;3.70;;
2784;SDS011;57944;48.722;9.316;2023-07-22T14:16:06;6.03;;;3.67;;
2784;SDS011;57944;48.722;9.316;2023-07-22T14:18:50;4.90;;;3.60;;
2784;SDS011;57944;48.722;9.316;2023-07-22T14:21:21;4.70;;;3.27;;
2784;SDS011;57944;48.722;9.316;2023-07-22T14:23:52;7.37;;;3.60;;
2784;SDS011;57944;48.722;9.316;2023-07-22T14:26:22;5.30;;;3.90;;
2784;SDS011;57944;48.722;9.316;2023-07-22T14:28:52;9.40;;;3.73;;
2784;SDS011;57944;48.722;9.316;2023-07-22T14:31:23;4.90;;;3.50;;
2784;SDS011;57944;48.722;9.316;2023-07-22T14:33:56;5.63;;;3.60;;
2784;SDS011;57944;48.722;9.316;2023-07-22T14:36:26;6.53;;;4.37;;
2784;SDS011;57944;48.722;9.316;2023-07-22T14:38:57;8.83;;;4.40;;
2784;SDS011;57944;48.722;9.316;2023-07-22T14:41:27;6.40;;;4.30;;
2784;SDS011;57944;48.722;9.316;2023-07-22T14:43:59;7.40;;;5.03;;
2784;SDS011;57944;48.722;9.316;2023-07-22T14:46:29;6.37;;;3.83;;
2784;SDS011;57944;48.722;9.316;2023-07-22T14:49:02;6.90;;;4.33;;
2784;SDS011;57944;48.722;9.316;2023-07-22T14:51:36;6.37;;;4.40;;
2784;SDS011;57944;48.722;9.316;2023-07-22T14:54:06;6.40;;;3.70;;
2784;SDS011;57944;48.722;9.316;2023-07-22T14:56:37;6.20;;;3.20;;
2784;SDS011;57944;48.722;9.316;2023-07-22T14:59:07;7.10;;;3.80;;
2784;SDS011;57944;48.722;9.316;2023-07-22T15:01:37;6.83;;;4.10;;
2784;SDS011;57944;48.722;9.316;2023-07-22T15:04:11;5.77;;;3.83;;
2784;SDS011;57944;48.722;9.316;2023-07-22T15:06:41;6.63;;;4.33;;
2784;SDS011;57944;48.722;9.316;2023-07-22T15:09:12;5.40;;;3.53;;
2784;SDS011;57944;48.722;9.316;2023-07-22T15:11:42;6.40;;;3.37;;
2784;SDS011;57944;48.722;9.316;2023-07-22T15:14:12;5.27;;;3.53;;
2784;SDS011;57944;48.722;9.316;2023-07-22T15:16:43;10.30;;;3.80;;
2784;SDS011;57944;48.722;9.316;2023-07-22T15:19:15;8.10;;;4.47;;
2784;SDS011;57944;48.722;9.316;2023-07-22T15:21:46;6.57;;;4.47;;
2784;SDS011;57944;48.722;9.316;2023-07-22T15:24:16;7.47;;;4.63;;
2784;SDS011;57944;48.722;9.316;2023-07-22T15:26:46;5.87;;;4.10;;